createdAt,value
2022-12-13T00:00:24.452Z,-1.48
2022-12-13T00:05:26.281Z,-1.50
2022-12-13T00:10:28.689Z,-1.51
2022-12-13T00:15:30.566Z,-1.52
2022-12-13T00:20:32.546Z,-1.50
2022-12-13T00:25:34.322Z,-1.50
2022-12-13T00:30:36.488Z,-1.52
2022-12-13T00:35:42.271Z,-1.52
2022-12-13T00:40:44.137Z,-1.54
2022-12-13T00:45:46.043Z,-1.56
2022-12-13T00:50:48.046Z,-1.57
2022-12-13T00:55:49.827Z,-1.60
2022-12-13T01:00:51.827Z,-1.65
2022-12-13T01:11:16.215Z,-1.67
2022-12-13T01:16:18.844Z,-1.68
2022-12-13T01:21:22.200Z,-1.67
2022-12-13T01:26:24.335Z,-1.63
2022-12-13T01:31:26.767Z,-1.57
2022-12-13T01:36:28.623Z,-1.54
2022-12-13T01:41:34.195Z,-1.51
2022-12-13T01:46:36.305Z,-1.51
2022-12-13T01:52:00.921Z,-1.53
2022-12-13T01:57:06.855Z,-1.55
2022-12-13T02:02:12.264Z,-1.55
2022-12-13T02:07:23.035Z,-1.56
2022-12-13T02:12:32.144Z,-1.56
2022-12-13T02:17:45.923Z,-1.54
2022-12-13T02:23:05.944Z,-1.58
2022-12-13T02:28:30.568Z,-1.61
2022-12-13T02:33:43.522Z,-1.63
2022-12-13T02:39:09.400Z,-1.66
2022-12-13T02:44:22.404Z,-1.69
2022-12-13T02:49:30.091Z,-1.75
2022-12-13T02:54:31.900Z,-1.80
2022-12-13T02:59:39.975Z,-1.86
2022-12-13T03:05:45.840Z,-1.97
2022-12-13T03:11:09.766Z,-2.06
2022-12-13T03:16:40.275Z,-2.14
2022-12-13T03:21:48.186Z,-2.22
2022-12-13T03:26:51.906Z,-2.26
2022-12-13T03:31:54.684Z,-2.34
2022-12-13T03:36:56.595Z,-2.40
2022-12-13T03:42:02.930Z,-2.45
2022-12-13T03:47:04.712Z,-2.49
2022-12-13T03:52:06.466Z,-2.52
2022-12-13T03:57:08.228Z,-2.58
2022-12-13T04:02:10.078Z,-2.66
2022-12-13T04:07:22.089Z,-2.75
2022-12-13T04:12:48.669Z,-2.85
2022-12-13T04:17:51.247Z,-2.94
2022-12-13T04:22:53.186Z,-3.02
2022-12-13T04:27:54.964Z,-3.14
2022-12-13T04:32:56.931Z,-3.22
2022-12-13T04:37:58.771Z,-3.29
2022-12-13T04:43:00.529Z,-3.30
2022-12-13T04:48:02.350Z,-3.30
2022-12-13T04:53:04.167Z,-3.35
2022-12-13T04:58:05.945Z,-3.49
2022-12-13T05:03:08.295Z,-3.58
2022-12-13T05:08:10.132Z,-3.64
2022-12-13T05:13:11.945Z,-3.71
2022-12-13T05:18:14.042Z,-3.76
2022-12-13T05:23:22.329Z,-3.84
2022-12-13T05:28:28.965Z,-3.85
2022-12-13T05:33:30.925Z,-3.84
2022-12-13T05:38:32.702Z,-3.86
2022-12-13T05:43:42.839Z,-3.86
2022-12-13T05:48:45.303Z,-3.84
2022-12-13T05:53:51.649Z,-3.80
2022-12-13T05:58:55.334Z,-3.80
2022-12-13T06:03:57.238Z,-3.81
2022-12-13T06:08:59.806Z,-3.82
2022-12-13T06:14:01.846Z,-3.83
2022-12-13T06:19:04.740Z,-3.92
2022-12-13T06:24:08.780Z,-3.99
2022-12-13T06:29:11.292Z,-4.04
2022-12-13T06:34:15.381Z,-4.08
2022-12-13T06:39:17.614Z,-4.07
2022-12-13T06:44:19.423Z,-4.12
2022-12-13T06:49:21.533Z,-4.12
2022-12-13T06:54:24.116Z,-4.14
2022-12-13T06:59:25.975Z,-4.17
2022-12-13T07:04:29.252Z,-4.16
2022-12-13T07:09:33.371Z,-4.13
2022-12-13T07:14:40.904Z,-4.08
2022-12-13T07:19:44.398Z,-4.03
2022-12-13T07:24:46.627Z,-3.93
2022-12-13T07:29:48.527Z,-3.82
2022-12-13T07:34:50.963Z,-3.70
2022-12-13T07:39:54.683Z,-3.56
2022-12-13T07:45:00.722Z,-3.47
2022-12-13T07:50:02.736Z,-3.41
2022-12-13T07:55:05.833Z,-3.41
2022-12-13T08:00:08.352Z,-3.41
2022-12-13T08:05:26.695Z,-3.35
2022-12-13T08:10:29.874Z,-3.23
2022-12-13T08:15:32.084Z,-3.19
2022-12-13T08:20:34.018Z,-3.17
2022-12-13T08:25:38.289Z,-3.19
2022-12-13T08:30:40.106Z,-3.21
2022-12-13T08:35:42.051Z,-3.17
2022-12-13T08:40:44.092Z,-3.13
2022-12-13T08:45:45.903Z,-3.05
2022-12-13T08:50:47.666Z,-2.94
2022-12-13T08:55:49.466Z,-2.82
2022-12-13T09:00:51.302Z,-2.66
2022-12-13T09:05:53.931Z,-2.52
2022-12-13T09:11:11.388Z,-2.39
2022-12-13T09:16:24.997Z,-2.10
2022-12-13T09:21:31.428Z,-1.84
2022-12-13T09:26:37.545Z,-1.75
2022-12-13T09:31:40.741Z,-1.66
2022-12-13T09:36:42.986Z,-1.65
2022-12-13T09:41:49.526Z,-1.58
2022-12-13T09:46:54.662Z,-1.53
2022-12-13T09:52:11.141Z,-1.52
2022-12-13T09:57:34.411Z,-1.47
2022-12-13T10:03:02.932Z,-1.42
2022-12-13T10:08:12.180Z,-1.39
2022-12-13T10:13:23.125Z,-1.43
2022-12-13T10:18:35.287Z,-1.49
2022-12-13T10:23:59.923Z,-1.44
2022-12-13T10:29:05.543Z,-1.38
2022-12-13T10:34:25.741Z,-1.36
2022-12-13T10:39:42.186Z,-1.29
2022-12-13T10:44:44.993Z,-1.28
2022-12-13T10:49:59.492Z,-1.31
2022-12-13T10:55:23.028Z,-1.36
2022-12-13T11:00:40.038Z,-1.40
2022-12-13T11:05:42.254Z,-1.43
2022-12-13T11:10:44.217Z,-1.38
2022-12-13T11:15:46.123Z,-1.33
2022-12-13T11:21:09.426Z,-1.24
2022-12-13T11:26:24.469Z,-1.21
2022-12-13T11:31:41.612Z,-1.20
2022-12-13T11:37:08.049Z,-1.19
2022-12-13T11:42:27.991Z,-1.19
2022-12-13T11:47:44.500Z,-1.19
2022-12-13T11:52:54.740Z,-1.18
2022-12-13T11:58:53.530Z,-1.17
2022-12-13T12:04:00.336Z,-1.18
2022-12-13T12:09:06.633Z,-1.21
2022-12-13T12:14:50.030Z,-1.28
2022-12-13T12:19:57.503Z,-1.38
2022-12-13T12:25:31.362Z,-1.41
2022-12-13T12:30:42.017Z,-1.39
2022-12-13T12:36:02.144Z,-1.34
2022-12-13T12:41:17.297Z,-1.31
2022-12-13T12:46:28.577Z,-1.27
2022-12-13T12:51:56.403Z,-1.25
2022-12-13T12:57:11.072Z,-1.25
2022-12-13T13:02:31.467Z,-1.30
2022-12-13T13:07:51.519Z,-1.36
2022-12-13T13:13:11.514Z,-1.50
2022-12-13T13:18:52.371Z,-1.62
2022-12-13T13:24:14.602Z,-1.73
2022-12-13T13:29:28.643Z,-1.82
2022-12-13T13:34:32.106Z,-1.88
2022-12-13T13:39:54.113Z,-1.94
2022-12-13T13:45:00.650Z,-1.96
2022-12-13T13:50:08.220Z,-2.00
2022-12-13T13:55:28.807Z,-2.01
2022-12-13T14:01:02.012Z,-2.07
2022-12-13T14:06:45.323Z,-2.14
2022-12-13T14:11:52.971Z,-2.16
2022-12-13T14:16:54.760Z,-2.15
2022-12-13T14:22:02.601Z,-2.18
2022-12-13T14:27:30.764Z,-2.23
2022-12-13T14:32:37.082Z,-2.30
2022-12-13T14:37:39.041Z,-2.41
2022-12-13T14:42:41.919Z,-2.48
2022-12-13T14:47:50.393Z,-2.56
2022-12-13T14:52:52.681Z,-2.63
2022-12-13T14:57:57.732Z,-2.73
2022-12-13T15:03:02.229Z,-2.81
2022-12-13T15:08:10.202Z,-2.89
2022-12-13T15:13:24.373Z,-2.97
2022-12-13T15:18:28.192Z,-3.05
2022-12-13T15:23:49.241Z,-3.13
2022-12-13T15:28:57.663Z,-3.20
2022-12-13T15:34:33.945Z,-3.28
2022-12-13T15:39:39.055Z,-3.33
2022-12-13T15:44:48.063Z,-3.36
2022-12-13T15:49:50.466Z,-3.42
2022-12-13T15:55:04.785Z,-3.47
2022-12-13T16:00:18.794Z,-3.54
2022-12-13T16:05:29.640Z,-3.60
2022-12-13T16:10:31.952Z,-3.65
2022-12-13T16:15:59.840Z,-3.69
2022-12-13T16:21:02.333Z,-3.75
2022-12-13T16:26:08.738Z,-3.80
2022-12-13T16:31:18.133Z,-3.85
2022-12-13T16:36:20.447Z,-3.89
2022-12-13T16:41:22.463Z,-3.93
2022-12-13T16:47:17.900Z,-3.96
2022-12-13T16:51:50.438Z,-3.98
2022-12-13T16:56:54.334Z,-4.04
2022-12-13T17:01:56.191Z,-4.07
2022-12-13T17:06:57.957Z,-4.09
2022-12-13T17:11:59.809Z,-4.13
2022-12-13T17:17:01.745Z,-4.15
2022-12-13T17:22:03.855Z,-4.18
2022-12-13T17:27:05.706Z,-4.21
2022-12-13T17:32:07.512Z,-4.26
2022-12-13T17:37:10.734Z,-4.32
2022-12-13T17:42:12.750Z,-4.32
2022-12-13T17:47:14.665Z,-4.33
2022-12-13T17:52:16.492Z,-4.36
2022-12-13T17:57:18.266Z,-4.37
2022-12-13T18:02:23.121Z,-4.40
2022-12-13T18:07:25.016Z,-4.38
2022-12-13T18:12:27.010Z,-4.36
2022-12-13T18:18:01.632Z,-4.35
2022-12-13T18:22:55.946Z,-4.40
2022-12-13T18:28:01.030Z,-4.49
2022-12-13T18:33:05.144Z,-4.58
2022-12-13T18:38:06.966Z,-4.62
2022-12-13T18:43:08.793Z,-4.68
2022-12-13T18:48:10.747Z,-4.72
2022-12-13T18:53:12.835Z,-4.76
2022-12-13T18:58:15.575Z,-4.79
2022-12-13T19:03:17.436Z,-4.84
2022-12-13T19:08:19.283Z,-4.88
2022-12-13T19:13:23.176Z,-4.94
2022-12-13T19:18:25.219Z,-4.98
2022-12-13T19:23:27.427Z,-5.00
2022-12-13T19:28:29.465Z,-5.02
2022-12-13T19:33:32.582Z,-5.01
2022-12-13T19:38:35.298Z,-5.05
2022-12-13T19:43:37.483Z,-5.06
2022-12-13T19:48:39.318Z,-5.09
2022-12-13T19:53:41.609Z,-5.11
2022-12-13T19:58:44.637Z,-5.15
2022-12-13T20:03:47.030Z,-5.18
2022-12-13T20:08:49.715Z,-5.23
2022-12-13T20:13:55.042Z,-5.25
2022-12-13T20:18:59.486Z,-5.29
2022-12-13T20:24:01.372Z,-5.31
2022-12-13T20:29:03.152Z,-5.33
2022-12-13T20:34:09.216Z,-5.34
2022-12-13T20:39:13.474Z,-5.38
2022-12-13T20:44:15.401Z,-5.41
2022-12-13T20:49:17.571Z,-5.39
2022-12-13T20:54:19.326Z,-5.40
2022-12-13T20:59:21.371Z,-5.40
2022-12-13T21:04:23.355Z,-5.42
2022-12-13T21:09:26.239Z,-5.41
2022-12-13T21:14:29.185Z,-5.41
2022-12-13T21:19:39.991Z,-5.38
2022-12-13T21:24:42.493Z,-5.36
2022-12-13T21:29:44.243Z,-5.35
2022-12-13T21:34:46.208Z,-5.36
2022-12-13T21:39:48.009Z,-5.37
2022-12-13T21:44:49.861Z,-5.37
2022-12-13T21:49:51.741Z,-5.40
2022-12-13T21:55:15.274Z,-5.43
2022-12-13T22:00:16.434Z,-5.44
2022-12-13T22:05:20.136Z,-5.46
2022-12-13T22:10:21.931Z,-5.47
2022-12-13T22:15:23.851Z,-5.49
2022-12-13T22:20:25.646Z,-5.50
2022-12-13T22:25:27.606Z,-5.48
2022-12-13T22:30:29.406Z,-5.47
2022-12-13T22:35:31.116Z,-5.46
2022-12-13T22:40:33.963Z,-5.41
2022-12-13T22:45:36.267Z,-5.38
2022-12-13T22:50:38.275Z,-5.31
2022-12-13T22:55:40.061Z,-5.25
2022-12-13T23:00:42.584Z,-5.23
2022-12-13T23:05:44.401Z,-5.18
2022-12-13T23:11:04.672Z,-5.17
2022-12-13T23:16:07.052Z,-5.12
2022-12-13T23:21:08.865Z,-5.08
2022-12-13T23:26:16.383Z,-5.02
2022-12-13T23:31:19.068Z,-4.98
2022-12-13T23:36:23.928Z,-4.96
2022-12-13T23:41:33.484Z,-4.93
2022-12-13T23:46:36.376Z,-4.90
2022-12-13T23:51:38.191Z,-4.87
2022-12-13T23:56:39.946Z,-4.82
